• Join FlightAware (Why Join?)
  • Login
  • US Flag 
05:42AM EDT


 

Airport Tracker/Info


-or-


 

Live Flight TrackerFlight Track Log ✈ EJA947 ✈ 22-Apr-2013 ✈ KMDW - KAPA

Flight Track Log - Related Links

Times and Time Zones

All times are in EDT time to prevent confusion due to time zone crossing. See the EJA947 flight status page for this flight to view local times or setup timezone preferences in your user account.

Time Position Orientation Groundspeed Altitude Reporting Facility
EDT Latitude Longitude Course Direction KTS MPH feet Rate Location/Type
10:13AM 41.7667 -87.7667 270° West 166 191 1,800  Level Chicago TRACON
10:14AM 41.7500 -87.8500 255° West 235 270 4,100 1,560 Climbing Chicago TRACON
10:15AM 41.7500 -87.9333 270° West 257 296 5,000 1,140 Climbing Chicago TRACON
10:16AM 41.7450 -87.9686 259° West 260 299 5,800 2,640 Climbing Chicago Center
10:17AM 41.7422 -88.0856 268° West 265 305 9,000 2,760 Climbing Chicago Center
10:18AM 41.7406 -88.1872 269° West 274 315 11,600 1,620 Climbing Chicago Center
10:19AM 41.7333 -88.5518 270° West  Level FlightAware Approximate
10:19AM 41.7400 -88.2939 270° West 287 330 12,400  Level Chicago Center
10:20AM 41.7347 -88.4219 267° West 343 395 14,400 2,220 Climbing Chicago Center
10:21AM 41.7306 -88.5544 268° West 359 413 17,100 2,400 Climbing Chicago Center
10:22AM 41.7242 -88.7183 267° West 369 425 19,400 2,160 Climbing Chicago Center
10:23AM 41.7183 -88.8628 267° West 388 447 21,600 2,340 Climbing Chicago Center
10:24AM 41.7111 -89.0103 266° West 400 460 24,300 2,460 Climbing Chicago Center
10:25AM 41.7106 -89.1572 270° West 399 459 26,800 2,160 Climbing Chicago Center
10:26AM 41.7097 -89.3094 270° West 408 470 28,800 2,040 Climbing Chicago Center
10:27AM 41.7086 -89.4981 270° West 420 483 31,000 2,460 Climbing Chicago Center
10:28AM 41.7078 -89.6494 270° West 427 491 33,900 2,460 Climbing Chicago Center
10:29AM 41.7064 -89.8014 269° West 417 480 36,200 1,980 Climbing Chicago Center
10:30AM 41.7036 -89.9550 269° West 414 476 38,000 1,620 Climbing Chicago Center
10:31AM 41.7019 -90.1114 269° West 420 483 39,600 960 Climbing Chicago Center
10:32AM 41.6992 -90.2700 269° West 426 490 40,000 180 Climbing Chicago Center
10:33AM 41.6953 -90.4778 269° West 459 528 40,000  Level Chicago Center
10:34AM 41.6919 -90.6556 269° West 464 534 40,000  Level Chicago Center
10:35AM 41.6886 -90.8286 269° West 467 537 40,000  Level Chicago Center
10:36AM 41.6844 -91.0025 268° West 469 540 40,000  Level Chicago Center
10:37AM 41.6822 -91.1753 269° West 467 537 40,000  Level Chicago Center
10:38AM 41.6761 -91.3542 267° West 477 549 40,000  Level Chicago Center
10:39AM 41.6717 -91.5250 268° West 468 539 40,000  Level Chicago Center
10:40AM 41.6664 -91.7336 268° West 469 540 40,000  Level Chicago Center
10:41AM 41.6606 -91.9058 267° West 466 536 40,000  Level Chicago Center
10:42AM 41.6556 -92.0778 268° West 466 536 40,000  Level Chicago Center
10:43AM 41.6494 -92.2506 267° West 467 537 40,000  Level Chicago Center
10:44AM 41.6439 -92.4231 268° West 467 537 40,000  Level Chicago Center
10:45AM 41.6364 -92.5931 267° West 463 533 40,000  Level Chicago Center
10:47AM 41.6294 -92.7892 267° West 468 539 40,000  Level Chicago Center
10:48AM 41.6239 -92.9594 268° West 467 537 40,000  Level Chicago Center
10:49AM 41.6172 -93.1319 267° West 468 539 40,000  Level Chicago Center
10:50AM 41.6078 -93.3375 267° West 467 537 40,000  Level Chicago Center
10:51AM 41.5997 -93.5083 266° West 466 536 40,000  Level Chicago Center
10:52AM 41.5936 -93.6781 267° West 462 532 40,000  Level Minneapolis Center
10:53AM 41.5864 -93.8506 267° West 468 539 40,000  Level Minneapolis Center
10:54AM 41.5775 -94.0244 266° West 472 543 40,000  Level Minneapolis Center
10:55AM 41.5692 -94.1981 266° West 472 543 40,000  Level Minneapolis Center
10:56AM 41.5583 -94.3833 266° West 475 547 40,000  Level Minneapolis Center
10:57AM 41.5469 -94.5928 266° West 472 543 40,000  Level Minneapolis Center
10:58AM 41.5378 -94.7678 266° West 472 543 40,000  Level Minneapolis Center
10:59AM 41.5303 -94.9092 266° West 475 547 40,000  Level Minneapolis Center
11:00AM 41.5181 -95.1169 266° West 470 541 40,000  Level Minneapolis Center
11:01AM 41.5081 -95.2900 266° West 469 540 40,000  Level Minneapolis Center
11:02AM 41.4978 -95.4606 265° West 464 534 40,000  Level Minneapolis Center
11:03AM 41.4853 -95.6422 265° West 459 528 40,000  Level Minneapolis Center
11:04AM 41.4753 -95.8125 266° West 458 527 40,000  Level Minneapolis Center
11:05AM 41.4636 -95.9819 265° West 459 528 40,000  Level Minneapolis Center
11:06AM 41.4533 -96.1497 265° West 455 524 40,000  Level Minneapolis Center
11:07AM 41.4419 -96.3175 265° West 456 525 40,000  Level Minneapolis Center
11:08AM 41.4300 -96.4908 265° West 455 524 40,000  Level Minneapolis Center
11:09AM 41.4153 -96.6886 264° West 451 519 40,000  Level Minneapolis Center
11:10AM 41.4031 -96.8542 264° West 450 518 40,000  Level Minneapolis Center
11:11AM 41.3894 -97.0225 264° West 455 524 40,000  Level Minneapolis Center
11:12AM 41.3769 -97.1883 264° West 452 520 40,000  Level Minneapolis Center
11:13AM 41.3644 -97.3575 264° West 458 527 40,000  Level Minneapolis Center
11:14AM 41.3511 -97.5269 264° West 459 528 40,000  Level Minneapolis Center
11:15AM 41.3372 -97.6958 264° West 460 529 40,000  Level Minneapolis Center
11:16AM 41.3211 -97.8964 264° West 461 531 40,000  Level Minneapolis Center
11:17AM 41.3067 -98.0633 263° West 458 527 40,000  Level Minneapolis Center
11:18AM 41.2931 -98.2308 264° West 456 525 40,000  Level Minneapolis Center
11:19AM 41.2789 -98.3989 264° West 458 527 40,000  Level Minneapolis Center
11:20AM 41.2639 -98.5703 263° West 458 527 40,000  Level Minneapolis Center
11:21AM 41.2486 -98.7375 263° West 458 527 40,000  Level Minneapolis Center
11:22AM 41.2350 -98.8844 263° West 455 524 40,000  Level Denver Center
11:23AM 41.2183 -99.0717 263° West 457 526 40,000  Level Denver Center
11:24AM 41.2033 -99.2239 263° West 456 525 40,000  Level Denver Center
11:25AM 41.1647 -99.4164 255° West 451 519 40,000  Level Denver Center
11:26AM 41.1319 -99.5633 254° West 452 520 40,000  Level Denver Center
11:28AM 41.0933 -99.7408 254° West 451 519 40,000  Level Denver Center
11:29AM 41.0589 -99.8942 253° West 452 520 40,000  Level Denver Center
11:30AM 41.0194 -100.0744 254° West 456 525 40,000  Level Denver Center
11:31AM 40.9839 -100.2289 253° West 457 526 40,000  Level Denver Center
11:32AM 40.9431 -100.4106 253° West 460 529 40,000  Level Denver Center
11:33AM 40.9078 -100.5661 253° West 463 533 40,000  Level Denver Center
11:34AM 40.8667 -100.7400 253° West 464 534 40,000  Level Denver Center
11:35AM 40.8250 -100.9192 253° West 468 539 40,000  Level Denver Center
11:36AM 40.7892 -101.0744 253° West 465 535 40,000  Level Denver Center
11:37AM 40.7522 -101.2311 253° West 467 537 40,000  Level Denver Center
11:38AM 40.7089 -101.4144 253° West 469 540 40,000  Level Denver Center
11:39AM 40.6719 -101.5714 253° West 468 539 40,000  Level Denver Center
11:40AM 40.6289 -101.7525 253° West 466 536 40,000  Level Denver Center
11:41AM 40.5914 -101.9061 252° West 463 533 40,000 -540 Level Denver Center
11:42AM 40.5475 -102.0825 252° West 454 522 38,900 -1,260 Descending Denver Center
11:43AM 40.5114 -102.2319 252° West 449 517 37,400 -1,800 Descending Denver Center
11:44AM 40.4764 -102.4089 255° West 450 518 35,300 -1,980 Descending Denver Center
11:45AM 40.4494 -102.5583 257° West 441 507 33,400 -1,620 Descending Denver Center
11:46AM 40.4203 -102.7128 256° West 441 507 32,000 -720 Descending Denver Center
11:47AM 40.3858 -102.8983 256° West 446 513 32,000  Level Denver Center
11:48AM 40.3550 -103.0558 256° West 443 510 32,000 -60 Level Denver Center
11:49AM 40.3256 -103.2131 256° West 442 509 31,900 -1,500 Descending Denver Center
11:50AM 40.2908 -103.3906 256° West 428 493 28,600 -2,940 Descending Denver Center
11:52AM 40.2633 -103.5372 256° West 417 480 25,900 -2,760 Descending Denver Center
11:53AM 40.2319 -103.6928 255° West 376 433 23,000 -2,460 Descending Denver Center
11:54AM 40.2086 -103.8075 255° West 327 376 20,900 -1,620 Descending Denver Center
11:55AM 40.1889 -103.8811 251° West 284 327 19,700 -1,260 Descending Denver Center
11:56AM 40.1339 -103.9967 238° Southwest 284 327 18,400 -1,020 Descending Denver Center
11:57AM 40.0942 -104.0839 239° Southwest 279 321 17,600 -720 Descending Denver Center
11:58AM 40.0514 -104.1742 238° Southwest 293 337 17,000 -360 Descending Denver Center
11:59AM 40.0075 -104.2700 239° Southwest 284 327 16,900 -540 Descending Denver Center
12:00PM 39.9722 -104.3447 238° Southwest 285 328 15,900 -1,020 Descending Denver Center
12:01PM 39.9333 -104.4333 240° Southwest 284 327 15,000 -480 Descending Denver TRACON
12:02PM 39.8833 -104.5333 237° Southwest 286 329 15,000  Level Denver TRACON
12:03PM 39.8258 -104.6342 233° Southwest 294 338 15,000  Level Denver Center
12:04PM 39.7469 -104.6606 194° South 298 343 15,000  Level Denver Center
12:05PM 39.6633 -104.6628 181° South 301 346 15,000  Level Denver Center
12:06PM 39.5686 -104.6631 180° South 316 364 15,000  Level Denver Center
12:07PM 39.4817 -104.6642 181° South 313 360 15,000  Level Denver Center
12:08PM 39.3956 -104.6661 181° South 288 331 15,000 -180 Level Denver Center
12:09PM 39.3189 -104.6667 180° South 276 318 14,700 -780 Descending Denver Center
12:10PM 39.2425 -104.6692 181° South 276 318 13,500 -1,260 Descending Denver Center
12:11PM 39.1886 -104.7258 219° Southwest 229 264 12,200 -1,260 Descending Denver Center
12:12PM 39.1950 -104.8044 276° West 233 268 10,900 -1,080 Descending Denver Center
12:13PM 39.2558 -104.8353 339° North 248 285 10,000 -1,260 Descending Denver Center
12:14PM 39.3256 -104.8381 358° North 251 289 8,400 -1,020 Descending Denver Center
12:15PM 39.3906 -104.8417 358° North 230 265 8,000 -300 Descending Denver Center
12:16PM 39.4561 -104.8447 358° North 217 250 7,900 -540 Descending Denver Center
12:17PM 39.5047 -104.8469 358° North 164 189 6,900 -840 Descending Denver Center
12:18PM 39.5447 -104.8494 357° North 135 155 6,200 -720 Descending Denver Center